L04 weather

Holtville Airport
Holtville, California, United States

Public forecast

Using degrees Fahrenheit for public forecast. Weather courtesy of forecast.io.

METAR (pilot weather report)

Closest report is General Rodolfo Sánchez Taboada International Airport, 12.7 nm (23.4 km) S. Retrieved 2019/08/21 22:42 UTC (0 seconds ago):

MMML 212242Z 13002KT 10SM SKC 45/M04 A2963

TAF (pilot weather forecast)

Closest forecast is General Rodolfo Sánchez Taboada International Airport, 12.7 nm (23.4 km) S. Retrieved 2019/08/21 18:06 UTC (4 hours ago):

TAF MMML 211705Z 2118/2218 33010KT P6SM SKC FM220300 33005KT P6SM SKC FM221800 33010KT P6SM SKC